Time;durP1;ratioP1;P1;durP2;ratioP2;P2;SDS_P1;SDS_P2;PMS_P1;PMS_P2;Temp;Humidity;BMP_temperature;BMP_pressure;BME280_temperature;BME280_humidity;BME280_pressure;Samples;Min_cycle;Max_cycle;Signal;HPM_P1;HPM_P2
2021/09/25 00:00:13;;;;;;;0.10;0.10;;;;;;;;;;5056992;28;20411;-91
2021/09/25 00:02:39;;;;;;;0.10;0.10;;;;;;;;;;5040918;28;20072;-93
2021/09/25 00:05:06;;;;;;;0.10;0.10;;;;;;;;;;5073339;28;20072;-93
2021/09/25 00:07:32;;;;;;;0.10;0.10;;;;;;;;;;5057135;28;20457;-92
2021/09/25 00:09:58;;;;;;;0.10;0.10;;;;;;;;;;5040256;28;20044;-92
2021/09/25 00:12:24;;;;;;;0.10;0.10;;;;;;;;;;5040158;28;20124;-92
2021/09/25 00:14:50;;;;;;;0.20;0.20;;;;;;;;;;5040214;28;20487;-92
2021/09/25 00:17:16;;;;;;;0.10;0.10;;;;;;;;;;5056737;28;20052;-93
2021/09/25 00:19:42;;;;;;;0.10;0.10;;;;;;;;;;5073319;28;20050;-90
2021/09/25 00:22:08;;;;;;;0.10;0.10;;;;;;;;;;5072905;28;20036;-94
2021/09/25 00:24:34;;;;;;;0.10;0.10;;;;;;;;;;5039737;28;20120;-93
2021/09/25 00:27:00;;;;;;;0.10;0.10;;;;;;;;;;5072929;28;20499;-93
2021/09/25 00:29:27;;;;;;;0.30;0.30;;;;;;;;;;5056459;28;20206;-93
2021/09/25 00:31:53;;;;;;;0.10;0.10;;;;;;;;;;5056327;28;20399;-92
2021/09/25 00:34:20;;;;;;;0.10;0.10;;;;;;;;;;5055945;28;20617;-94
2021/09/25 00:36:46;;;;;;;0.10;0.10;;;;;;;;;;5039954;28;20066;-95
2021/09/25 00:39:12;;;;;;;0.10;0.10;;;;;;;;;;5039942;28;20044;-92
2021/09/25 00:41:38;;;;;;;0.10;0.10;;;;;;;;;;5056253;28;20463;-94
2021/09/25 00:44:04;;;;;;;0.10;0.10;;;;;;;;;;5040097;28;20074;-94
2021/09/25 00:46:32;;;;;;;0.10;0.10;;;;;;;;;;5039486;28;20068;-93
2021/09/25 00:48:58;;;;;;;0.10;0.10;;;;;;;;;;5056436;28;20040;-94
2021/09/25 00:51:24;;;;;;;0.10;0.10;;;;;;;;;;5072911;28;20048;-93
2021/09/25 00:53:50;;;;;;;0.10;0.10;;;;;;;;;;5056181;28;20089;-93
2021/09/25 00:56:16;;;;;;;0.10;0.10;;;;;;;;;;5039520;28;20052;-92
2021/09/25 00:58:42;;;;;;;0.10;0.10;;;;;;;;;;5039127;28;20041;-92
2021/09/25 01:01:08;;;;;;;0.10;0.10;;;;;;;;;;5056066;28;20041;-94
2021/09/25 01:03:34;;;;;;;0.10;0.10;;;;;;;;;;5055825;28;20174;-93
2021/09/25 01:06:00;;;;;;;0.10;0.10;;;;;;;;;;5039385;28;20123;-93
2021/09/25 01:08:26;;;;;;;0.20;0.20;;;;;;;;;;5038844;28;20043;-93
2021/09/25 01:10:52;;;;;;;0.10;0.10;;;;;;;;;;5055726;28;20127;-92
2021/09/25 01:13:18;;;;;;;0.10;0.10;;;;;;;;;;5055649;28;20508;-93
2021/09/25 01:15:44;;;;;;;0.10;0.10;;;;;;;;;;5039157;28;20040;-95
2021/09/25 01:18:11;;;;;;;0.10;0.10;;;;;;;;;;5038795;28;20079;-93
2021/09/25 01:20:37;;;;;;;0.13;0.13;;;;;;;;;;5055422;28;20491;-93
2021/09/25 01:23:03;;;;;;;0.10;0.10;;;;;;;;;;5038667;28;20124;-93
2021/09/25 01:25:29;;;;;;;0.10;0.10;;;;;;;;;;5055524;28;20098;-90
2021/09/25 01:27:55;;;;;;;0.10;0.10;;;;;;;;;;5038769;28;20040;-93
2021/09/25 01:30:21;;;;;;;0.10;0.10;;;;;;;;;;5039013;28;20185;-93
2021/09/25 01:32:47;;;;;;;0.10;0.10;;;;;;;;;;5055889;28;20045;-93
2021/09/25 01:35:13;;;;;;;0.10;0.10;;;;;;;;;;5055316;28;20079;-92
2021/09/25 01:37:40;;;;;;;0.10;0.10;;;;;;;;;;5055204;28;20048;-92
2021/09/25 01:40:06;;;;;;;0.10;0.10;;;;;;;;;;5055314;28;20181;-92
2021/09/25 01:42:32;;;;;;;0.10;0.10;;;;;;;;;;5055239;28;20098;-94
2021/09/25 01:44:59;;;;;;;0.20;0.20;;;;;;;;;;5054374;28;20418;-93
2021/09/25 01:47:25;;;;;;;0.20;0.20;;;;;;;;;;5038799;28;20114;-92
2021/09/25 01:49:51;;;;;;;0.10;0.10;;;;;;;;;;5055114;28;20037;-93
2021/09/25 01:52:17;;;;;;;0.10;0.10;;;;;;;;;;5055406;28;20040;-93
2021/09/25 01:54:43;;;;;;;0.10;0.10;;;;;;;;;;5055246;28;20060;-93
2021/09/25 01:57:09;;;;;;;0.30;0.30;;;;;;;;;;5038361;28;20496;-92
2021/09/25 01:59:35;;;;;;;0.10;0.10;;;;;;;;;;5055068;28;20040;-92
2021/09/25 02:02:01;;;;;;;0.10;0.10;;;;;;;;;;5038826;28;20302;-92
2021/09/25 02:04:27;;;;;;;0.10;0.10;;;;;;;;;;5055151;28;20041;-94
2021/09/25 02:06:53;;;;;;;0.10;0.10;;;;;;;;;;5054923;28;20085;-94
2021/09/25 02:09:19;;;;;;;0.40;0.40;;;;;;;;;;5038802;28;20048;-92
2021/09/25 02:11:45;;;;;;;0.20;0.20;;;;;;;;;;5039093;28;20032;-93
2021/09/25 02:14:11;;;;;;;0.10;0.10;;;;;;;;;;5038397;28;20072;-92
2021/09/25 02:16:37;;;;;;;0.10;0.10;;;;;;;;;;5071572;28;20050;-93
2021/09/25 02:19:03;;;;;;;0.10;0.10;;;;;;;;;;5055283;28;20068;-92
2021/09/25 02:21:29;;;;;;;0.10;0.10;;;;;;;;;;5037977;28;20051;-93
2021/09/25 02:23:55;;;;;;;0.10;0.10;;;;;;;;;;5038635;28;20119;-93
2021/09/25 02:26:21;;;;;;;0.20;0.20;;;;;;;;;;5054799;28;20079;-92
2021/09/25 02:28:47;;;;;;;0.10;0.10;;;;;;;;;;5038337;28;20491;-92
2021/09/25 02:31:14;;;;;;;0.10;0.10;;;;;;;;;;5054748;28;20098;-92
2021/09/25 02:33:40;;;;;;;0.20;0.20;;;;;;;;;;5038140;28;20468;-93
2021/09/25 02:36:06;;;;;;;0.10;0.10;;;;;;;;;;5054671;28;20055;-92
2021/09/25 02:38:32;;;;;;;0.10;0.10;;;;;;;;;;5071222;28;20093;-91
2021/09/25 02:40:58;;;;;;;0.10;0.10;;;;;;;;;;5037946;28;20041;-92
2021/09/25 02:43:24;;;;;;;0.10;0.10;;;;;;;;;;5054637;28;20039;-91
2021/09/25 02:45:50;;;;;;;0.10;0.10;;;;;;;;;;5055235;28;20036;-92
2021/09/25 02:48:16;;;;;;;0.13;0.13;;;;;;;;;;5054448;28;20055;-92
2021/09/25 02:50:42;;;;;;;0.10;0.10;;;;;;;;;;5038168;28;20075;-92
2021/09/25 02:53:08;;;;;;;0.10;0.10;;;;;;;;;;5054481;28;20358;-92
2021/09/25 02:55:34;;;;;;;0.10;0.10;;;;;;;;;;5054330;28;20046;-92
2021/09/25 02:58:00;;;;;;;0.10;0.10;;;;;;;;;;5041341;28;20488;-93
2021/09/25 03:00:26;;;;;;;0.10;0.10;;;;;;;;;;5058027;28;20041;-93
2021/09/25 03:02:52;;;;;;;0.10;0.10;;;;;;;;;;5058947;28;20072;-93
2021/09/25 03:05:18;;;;;;;0.10;0.10;;;;;;;;;;5041431;28;20036;-93
2021/09/25 03:07:44;;;;;;;0.10;0.10;;;;;;;;;;5041918;28;20042;-93
2021/09/25 03:10:10;;;;;;;0.10;0.10;;;;;;;;;;5057803;28;20041;-92
2021/09/25 03:12:36;;;;;;;0.10;0.10;;;;;;;;;;5041005;28;20040;-95
2021/09/25 03:15:13;;;;;;;0.20;0.20;;;;;;;;;;5041926;28;20134;-92
2021/09/25 03:17:45;;;;;;;0.10;0.10;;;;;;;;;;5043067;28;20174;-94
2021/09/25 03:20:17;;;;;;;0.10;0.10;;;;;;;;;;5042965;28;20044;-93
2021/09/25 03:22:45;;;;;;;0.10;0.10;;;;;;;;;;5042653;28;20067;-94
2021/09/25 03:25:14;;;;;;;0.10;0.10;;;;;;;;;;5041495;28;20032;-95
2021/09/25 03:27:40;;;;;;;0.10;0.10;;;;;;;;;;5041713;28;20059;-95
2021/09/25 03:30:06;;;;;;;0.10;0.10;;;;;;;;;;5041029;28;20463;-92
2021/09/25 03:32:32;;;;;;;0.10;0.10;;;;;;;;;;5041099;28;20063;-91
2021/09/25 03:34:58;;;;;;;0.10;0.10;;;;;;;;;;5040967;28;20044;-92
2021/09/25 03:37:24;;;;;;;0.38;0.38;;;;;;;;;;5057087;28;20041;-92
2021/09/25 03:39:50;;;;;;;0.10;0.10;;;;;;;;;;5057102;28;20036;-92
2021/09/25 03:42:16;;;;;;;0.10;0.10;;;;;;;;;;5057370;28;20036;-93
2021/09/25 03:44:43;;;;;;;0.10;0.10;;;;;;;;;;5040665;28;20404;-93
2021/09/25 03:47:09;;;;;;;0.10;0.10;;;;;;;;;;5040525;28;20063;-93
2021/09/25 03:49:35;;;;;;;0.10;0.10;;;;;;;;;;5057599;28;20040;-92
2021/09/25 03:52:01;;;;;;;0.10;0.10;;;;;;;;;;5040505;28;20044;-92
2021/09/25 03:54:27;;;;;;;0.10;0.10;;;;;;;;;;5040462;28;20433;-92
2021/09/25 03:56:53;;;;;;;0.10;0.10;;;;;;;;;;5056803;28;20175;-92
2021/09/25 03:59:19;;;;;;;0.20;0.20;;;;;;;;;;5056788;28;20148;-92
2021/09/25 04:01:45;;;;;;;0.10;0.10;;;;;;;;;;5040593;28;20478;-92
2021/09/25 04:04:11;;;;;;;0.20;0.20;;;;;;;;;;5057061;28;20037;-92
2021/09/25 04:06:38;;;;;;;0.10;0.10;;;;;;;;;;5057628;28;20050;-94
2021/09/25 04:09:13;;;;;;;0.20;0.20;;;;;;;;;;5040536;28;20058;-93
2021/09/25 04:11:39;;;;;;;0.10;0.10;;;;;;;;;;5056739;28;20131;-93
2021/09/25 04:14:05;;;;;;;0.10;0.10;;;;;;;;;;5040457;28;20090;-92
2021/09/25 04:16:32;;;;;;;0.10;0.10;;;;;;;;;;5056483;28;20040;-92
2021/09/25 04:18:57;;;;;;;2.15;0.20;;;;;;;;;;5056631;28;20123;-93
2021/09/25 04:21:23;;;;;;;0.10;0.10;;;;;;;;;;5056408;28;20083;-92
2021/09/25 04:23:49;;;;;;;0.10;0.10;;;;;;;;;;5039661;28;20037;-92
2021/09/25 04:26:16;;;;;;;0.20;0.20;;;;;;;;;;5056233;28;20119;-94
2021/09/25 04:28:42;;;;;;;0.10;0.10;;;;;;;;;;5040021;28;20036;-92
2021/09/25 04:31:08;;;;;;;0.10;0.10;;;;;;;;;;5056275;28;20459;-92
2021/09/25 04:33:34;;;;;;;0.10;0.10;;;;;;;;;;5039837;28;20079;-92
2021/09/25 04:36:00;;;;;;;0.10;0.10;;;;;;;;;;5056327;28;20041;-93
2021/09/25 04:38:26;;;;;;;0.10;0.10;;;;;;;;;;5073226;28;20048;-93
2021/09/25 04:40:52;;;;;;;0.10;0.10;;;;;;;;;;5056324;28;20037;-92
2021/09/25 04:43:18;;;;;;;0.10;0.10;;;;;;;;;;5039261;28;20036;-92
2021/09/25 04:45:44;;;;;;;0.10;0.10;;;;;;;;;;5039369;28;20040;-92
2021/09/25 04:48:10;;;;;;;0.10;0.10;;;;;;;;;;5039495;28;20040;-94
2021/09/25 04:50:36;;;;;;;0.10;0.10;;;;;;;;;;5039418;28;20041;-92
2021/09/25 04:53:08;;;;;;;0.10;0.10;;;;;;;;;;5056629;28;20044;-93
2021/09/25 04:55:35;;;;;;;0.10;0.10;;;;;;;;;;5056081;28;20047;-92
2021/09/25 04:58:01;;;;;;;0.10;0.10;;;;;;;;;;5056331;28;20064;-93
2021/09/25 05:00:27;;;;;;;0.20;0.20;;;;;;;;;;5040256;28;20040;-94
2021/09/25 05:02:53;;;;;;;0.10;0.10;;;;;;;;;;5039915;28;20084;-93
2021/09/25 05:05:19;;;;;;;0.10;0.10;;;;;;;;;;5056457;28;20503;-94
2021/09/25 05:07:45;;;;;;;0.10;0.10;;;;;;;;;;5039541;28;20502;-94
2021/09/25 05:10:11;;;;;;;0.10;0.10;;;;;;;;;;5039409;28;20041;-93
2021/09/25 05:12:37;;;;;;;0.10;0.10;;;;;;;;;;5039556;28;20580;-94
2021/09/25 05:15:04;;;;;;;0.10;0.10;;;;;;;;;;5039242;28;20062;-94
2021/09/25 05:17:30;;;;;;;0.10;0.10;;;;;;;;;;5039477;28;20047;-94
2021/09/25 05:19:56;;;;;;;0.10;0.10;;;;;;;;;;5039133;28;20048;-93
2021/09/25 05:22:22;;;;;;;0.10;0.10;;;;;;;;;;5056570;28;20043;-94
2021/09/25 05:24:48;;;;;;;0.10;0.10;;;;;;;;;;5039867;28;20036;-92
2021/09/25 05:27:14;;;;;;;0.10;0.10;;;;;;;;;;5055460;28;20464;-93
2021/09/25 05:29:40;;;;;;;0.10;0.10;;;;;;;;;;5039034;28;20066;-93
2021/09/25 05:32:06;;;;;;;0.10;0.10;;;;;;;;;;5056473;28;20040;-93
2021/09/25 05:34:33;;;;;;;0.10;0.10;;;;;;;;;;5055674;28;20105;-93
2021/09/25 05:36:59;;;;;;;0.10;0.10;;;;;;;;;;5055641;28;20093;-93
2021/09/25 05:39:25;;;;;;;0.10;0.10;;;;;;;;;;5038750;28;20488;-92
2021/09/25 05:41:51;;;;;;;0.10;0.10;;;;;;;;;;5055404;28;20127;-93
2021/09/25 05:44:17;;;;;;;0.10;0.10;;;;;;;;;;5055261;28;20399;-93
2021/09/25 05:46:43;;;;;;;0.10;0.10;;;;;;;;;;5056036;28;20396;-93
2021/09/25 05:49:10;;;;;;;0.10;0.10;;;;;;;;;;5039004;28;20041;-92
2021/09/25 05:51:36;;;;;;;0.10;0.10;;;;;;;;;;5039148;28;20044;-93
2021/09/25 05:54:02;;;;;;;0.10;0.10;;;;;;;;;;5038978;28;20094;-93
2021/09/25 05:56:28;;;;;;;0.10;0.10;;;;;;;;;;5071857;28;20143;-94
2021/09/25 05:58:54;;;;;;;0.10;0.10;;;;;;;;;;5057999;28;20048;-92
2021/09/25 06:01:20;;;;;;;0.10;0.10;;;;;;;;;;5072344;28;20063;-91
2021/09/25 06:03:46;;;;;;;0.10;0.10;;;;;;;;;;5078186;28;20032;-89
2021/09/25 06:06:12;;;;;;;0.10;0.10;;;;;;;;;;5061198;28;20036;-92
2021/09/25 06:08:38;;;;;;;0.10;0.10;;;;;;;;;;5074472;28;20068;-91
2021/09/25 06:11:04;;;;;;;0.10;0.10;;;;;;;;;;5078479;28;20032;-89
2021/09/25 06:13:30;;;;;;;0.10;0.10;;;;;;;;;;5078014;28;20052;-90
2021/09/25 06:15:56;;;;;;;0.10;0.10;;;;;;;;;;5068382;28;20048;-89
2021/09/25 06:18:22;;;;;;;0.10;0.10;;;;;;;;;;5037707;28;20545;-89
2021/09/25 06:20:48;;;;;;;0.10;0.10;;;;;;;;;;5070695;28;20063;-89
2021/09/25 06:23:14;;;;;;;0.10;0.10;;;;;;;;;;5054016;28;20048;-90
2021/09/25 06:25:40;;;;;;;0.10;0.10;;;;;;;;;;5037720;28;20074;-92
2021/09/25 06:28:06;;;;;;;0.10;0.10;;;;;;;;;;5054322;28;20033;-91
2021/09/25 06:30:32;;;;;;;0.10;0.10;;;;;;;;;;5054317;28;20040;-90
2021/09/25 06:32:59;;;;;;;0.10;0.10;;;;;;;;;;5058554;28;20395;-93
2021/09/25 06:35:25;;;;;;;0.10;0.10;;;;;;;;;;5058159;28;20048;-93
2021/09/25 06:37:51;;;;;;;0.10;0.10;;;;;;;;;;5058861;28;20054;-90
2021/09/25 06:40:17;;;;;;;0.10;0.10;;;;;;;;;;5041892;28;20044;-92
2021/09/25 06:42:43;;;;;;;0.20;0.20;;;;;;;;;;5058960;28;20330;-90
2021/09/25 06:45:09;;;;;;;0.10;0.10;;;;;;;;;;5042158;28;20070;-91
2021/09/25 06:47:35;;;;;;;0.10;0.10;;;;;;;;;;5058817;28;20167;-89
2021/09/25 06:50:02;;;;;;;0.10;0.10;;;;;;;;;;5057895;28;20032;-90
2021/09/25 06:52:28;;;;;;;0.20;0.20;;;;;;;;;;5041942;28;20416;-91
2021/09/25 06:54:54;;;;;;;0.10;0.10;;;;;;;;;;5041592;28;20033;-94
2021/09/25 06:57:20;;;;;;;0.10;0.10;;;;;;;;;;5058133;28;20052;-93
2021/09/25 06:59:46;;;;;;;0.10;0.10;;;;;;;;;;5041798;28;20503;-93
2021/09/25 07:02:12;;;;;;;0.10;0.10;;;;;;;;;;5059234;28;20037;-94
2021/09/25 07:04:38;;;;;;;0.10;0.10;;;;;;;;;;5075935;28;20043;-94
2021/09/25 07:07:04;;;;;;;0.10;0.10;;;;;;;;;;5058780;28;20041;-93
2021/09/25 07:09:30;;;;;;;0.10;0.10;;;;;;;;;;5058484;28;20048;-94
2021/09/25 07:11:56;;;;;;;0.10;0.10;;;;;;;;;;5058403;28;20141;-94
2021/09/25 07:14:22;;;;;;;0.10;0.10;;;;;;;;;;5041437;28;20527;-94
2021/09/25 07:16:48;;;;;;;0.10;0.10;;;;;;;;;;5042190;28;20115;-93
2021/09/25 07:19:14;;;;;;;0.10;0.10;;;;;;;;;;5058965;28;20040;-93
2021/09/25 07:21:40;;;;;;;0.10;0.10;;;;;;;;;;5041934;28;20552;-92
2021/09/25 07:24:06;;;;;;;0.10;0.10;;;;;;;;;;5059212;28;20067;-93
2021/09/25 07:26:32;;;;;;;0.10;0.10;;;;;;;;;;5059008;28;20037;-94
2021/09/25 07:28:58;;;;;;;0.10;0.10;;;;;;;;;;5058034;28;20415;-91
2021/09/25 07:31:24;;;;;;;0.10;0.10;;;;;;;;;;5057439;28;20079;-93
2021/09/25 07:33:50;;;;;;;0.10;0.10;;;;;;;;;;5040761;28;20117;-92
2021/09/25 07:36:16;;;;;;;0.10;0.10;;;;;;;;;;5040913;28;20052;-91
2021/09/25 07:38:42;;;;;;;0.10;0.10;;;;;;;;;;5040495;28;20119;-92
2021/09/25 07:41:08;;;;;;;0.20;0.20;;;;;;;;;;5058904;28;20044;-95
2021/09/25 07:43:35;;;;;;;0.10;0.10;;;;;;;;;;5041555;28;20044;-94
2021/09/25 07:46:01;;;;;;;0.10;0.10;;;;;;;;;;5059853;28;20072;-94
2021/09/25 07:48:27;;;;;;;0.10;0.10;;;;;;;;;;5076285;28;20094;-93
2021/09/25 07:50:53;;;;;;;0.20;0.20;;;;;;;;;;5058056;28;20050;-92
2021/09/25 07:53:19;;;;;;;0.75;0.75;;;;;;;;;;5040566;28;20131;-91
2021/09/25 07:55:45;;;;;;;0.10;0.10;;;;;;;;;;5056790;28;20139;-92
2021/09/25 07:58:11;;;;;;;0.10;0.10;;;;;;;;;;5056061;28;20095;-90
2021/09/25 08:00:39;;;;;;;0.10;0.10;;;;;;;;;;5056286;28;20499;-92
2021/09/25 08:03:05;;;;;;;0.10;0.10;;;;;;;;;;5056700;28;20037;-89
2021/09/25 08:05:31;;;;;;;0.10;0.10;;;;;;;;;;5039757;28;20060;-91
2021/09/25 08:07:57;;;;;;;0.10;0.10;;;;;;;;;;5056453;28;20105;-91
2021/09/25 08:10:23;;;;;;;0.52;0.52;;;;;;;;;;5056075;28;20048;-90
2021/09/25 08:12:49;;;;;;;0.10;0.10;;;;;;;;;;5056644;28;20087;-91
2021/09/25 08:15:16;;;;;;;0.10;0.10;;;;;;;;;;5072787;28;20144;-91
2021/09/25 08:17:42;;;;;;;0.10;0.10;;;;;;;;;;5072781;28;20139;-90
2021/09/25 08:20:10;;;;;;;0.10;0.10;;;;;;;;;;5039726;28;20102;-91
2021/09/25 08:22:36;;;;;;;0.10;0.10;;;;;;;;;;5056558;28;20039;-91
2021/09/25 08:25:02;;;;;;;0.10;0.10;;;;;;;;;;5056279;28;20068;-92
2021/09/25 08:27:30;;;;;;;0.10;0.10;;;;;;;;;;5040134;28;20042;-92
2021/09/25 08:29:56;;;;;;;0.10;0.10;;;;;;;;;;5039679;28;20079;-91
2021/09/25 08:32:22;;;;;;;0.10;0.10;;;;;;;;;;5039253;28;20067;-90
2021/09/25 08:34:48;;;;;;;0.10;0.10;;;;;;;;;;5038827;28;20125;-90
2021/09/25 08:37:15;;;;;;;0.10;0.10;;;;;;;;;;5055682;28;20043;-89
2021/09/25 08:39:41;;;;;;;0.10;0.10;;;;;;;;;;5055029;28;20511;-89
2021/09/25 08:42:07;;;;;;;0.10;0.10;;;;;;;;;;5055689;28;20076;-91
2021/09/25 08:44:33;;;;;;;0.10;0.10;;;;;;;;;;5039286;28;20064;-90
2021/09/25 08:46:59;;;;;;;0.22;0.20;;;;;;;;;;5039092;28;20083;-92
2021/09/25 08:49:26;;;;;;;0.10;0.10;;;;;;;;;;5055535;28;20096;-89
2021/09/25 08:51:51;;;;;;;0.10;0.10;;;;;;;;;;5038998;28;20076;-91
2021/09/25 08:54:17;;;;;;;0.10;0.10;;;;;;;;;;5055281;28;20051;-91
2021/09/25 08:56:43;;;;;;;0.10;0.10;;;;;;;;;;5038960;28;20064;-91
2021/09/25 08:59:09;;;;;;;0.10;0.10;;;;;;;;;;5055407;28;20067;-93
2021/09/25 09:01:35;;;;;;;0.10;0.10;;;;;;;;;;5039236;28;20041;-94
2021/09/25 09:04:03;;;;;;;0.10;0.10;;;;;;;;;;5039193;28;20044;-93
2021/09/25 09:06:30;;;;;;;0.10;0.10;;;;;;;;;;5039111;28;20095;-90
2021/09/25 09:08:56;;;;;;;0.10;0.10;;;;;;;;;;5055428;28;20409;-91
2021/09/25 09:11:23;;;;;;;0.10;0.10;;;;;;;;;;5055103;28;20045;-90
2021/09/25 09:13:49;;;;;;;0.10;0.10;;;;;;;;;;5037770;28;20448;-89
2021/09/25 09:16:15;;;;;;;0.20;0.20;;;;;;;;;;5054432;28;20051;-90
2021/09/25 09:18:42;;;;;;;0.10;0.10;;;;;;;;;;5054888;28;20036;-91
2021/09/25 09:21:13;;;;;;;0.10;0.10;;;;;;;;;;5038159;28;20040;-90
2021/09/25 09:23:40;;;;;;;0.10;0.10;;;;;;;;;;5054589;28;20051;-89
2021/09/25 09:26:06;;;;;;;0.10;0.10;;;;;;;;;;5054668;28;20040;-90
2021/09/25 09:28:33;;;;;;;0.20;0.20;;;;;;;;;;5071180;28;20480;-89
2021/09/25 09:30:59;;;;;;;0.10;0.10;;;;;;;;;;5038118;28;20503;-89
2021/09/25 09:33:35;;;;;;;0.10;0.10;;;;;;;;;;5038106;28;20036;-91
2021/09/25 09:36:10;;;;;;;0.10;0.10;;;;;;;;;;5038120;28;20051;-92
2021/09/25 09:38:49;;;;;;;0.10;0.10;;;;;;;;;;5054910;28;20040;-90
2021/09/25 09:41:15;;;;;;;0.10;0.10;;;;;;;;;;5055448;28;20403;-88
2021/09/25 09:43:41;;;;;;;0.10;0.10;;;;;;;;;;5054196;28;20044;-88
2021/09/25 09:46:07;;;;;;;0.10;0.10;;;;;;;;;;5054024;28;20086;-89
2021/09/25 09:48:33;;;;;;;0.10;0.10;;;;;;;;;;5054193;28;20032;-87
2021/09/25 09:51:00;;;;;;;0.10;0.10;;;;;;;;;;5054109;28;20044;-90
2021/09/25 09:53:26;;;;;;;0.10;0.10;;;;;;;;;;5054781;28;20041;-88
2021/09/25 09:55:52;;;;;;;0.10;0.10;;;;;;;;;;5057760;28;20043;-89
2021/09/25 09:58:18;;;;;;;0.20;0.20;;;;;;;;;;5070639;28;20430;-88
2021/09/25 10:00:44;;;;;;;0.17;0.17;;;;;;;;;;5070611;28;20114;-86
2021/09/25 10:03:11;;;;;;;0.10;0.10;;;;;;;;;;5054024;28;20087;-87
2021/09/25 10:05:38;;;;;;;0.10;0.10;;;;;;;;;;5053206;28;20572;-87
2021/09/25 10:08:04;;;;;;;0.10;0.10;;;;;;;;;;5053574;28;20041;-86
2021/09/25 10:10:30;;;;;;;0.10;0.10;;;;;;;;;;5054665;28;20040;-86
2021/09/25 10:12:56;;;;;;;0.20;0.20;;;;;;;;;;5037515;28;20097;-87
2021/09/25 10:15:22;;;;;;;0.10;0.10;;;;;;;;;;5037413;28;20154;-88
2021/09/25 10:17:48;;;;;;;0.10;0.10;;;;;;;;;;5054155;28;20063;-88
2021/09/25 10:20:14;;;;;;;0.10;0.10;;;;;;;;;;5053849;28;20044;-86
2021/09/25 10:22:40;;;;;;;0.10;0.10;;;;;;;;;;5036931;28;20059;-87
2021/09/25 10:25:11;;;;;;;0.10;0.10;;;;;;;;;;5037010;28;20041;-87
2021/09/25 10:27:37;;;;;;;0.10;0.10;;;;;;;;;;5053742;28;20036;-87
2021/09/25 10:30:04;;;;;;;0.10;0.10;;;;;;;;;;5053749;28;20369;-88
2021/09/25 10:32:31;;;;;;;0.10;0.10;;;;;;;;;;5037646;28;20044;-87
2021/09/25 10:35:15;;;;;;;0.10;0.10;;;;;;;;;;5037620;28;20051;-92
2021/09/25 10:37:44;;;;;;;0.43;0.43;;;;;;;;;;5055148;28;20041;-93
2021/09/25 10:40:13;;;;;;;0.10;0.10;;;;;;;;;;5072133;28;20384;-93
2021/09/25 10:42:43;;;;;;;0.10;0.10;;;;;;;;;;5038584;28;20060;-91
2021/09/25 10:45:12;;;;;;;0.10;0.10;;;;;;;;;;5052924;28;20040;-94
2021/09/25 10:47:39;;;;;;;0.10;0.10;;;;;;;;;;5039195;28;20119;-94
2021/09/25 10:50:10;;;;;;;0.10;0.10;;;;;;;;;;5038244;28;20542;-95
2021/09/25 10:52:52;;;;;;;0.10;0.10;;;;;;;;;;5055220;28;20502;-94
2021/09/25 10:55:22;;;;;;;0.10;0.10;;;;;;;;;;5054294;28;20055;-94
2021/09/25 10:58:06;;;;;;;0.10;0.10;;;;;;;;;;5042122;28;20144;-93
2021/09/25 11:00:38;;;;;;;0.28;0.20;;;;;;;;;;5033492;28;20054;-93
2021/09/25 11:03:04;;;;;;;0.20;0.20;;;;;;;;;;5031511;28;20091;-93
2021/09/25 11:05:48;;;;;;;0.20;0.20;;;;;;;;;;5031327;28;20472;-95
2021/09/25 11:08:15;;;;;;;0.10;0.10;;;;;;;;;;5015570;28;20079;-94
2021/09/25 11:11:03;;;;;;;0.38;0.25;;;;;;;;;;5016154;28;20037;-94
2021/09/25 11:13:47;;;;;;;0.10;0.10;;;;;;;;;;5016062;28;20087;-93
2021/09/25 11:16:14;;;;;;;0.10;0.10;;;;;;;;;;5031013;28;20492;-92
2021/09/25 11:18:52;;;;;;;0.10;0.10;;;;;;;;;;5033864;28;20049;-93
2021/09/25 11:21:18;;;;;;;0.10;0.10;;;;;;;;;;5034437;28;20053;-94
2021/09/25 11:23:44;;;;;;;0.10;0.10;;;;;;;;;;5018038;28;20092;-93
2021/09/25 11:26:11;;;;;;;0.10;0.10;;;;;;;;;;5038592;28;20040;-94
2021/09/25 11:28:39;;;;;;;0.20;0.20;;;;;;;;;;5037277;28;20041;-94
2021/09/25 11:31:08;;;;;;;0.10;0.10;;;;;;;;;;5051135;28;20147;-95
2021/09/25 11:33:36;;;;;;;0.10;0.10;;;;;;;;;;5057976;28;20527;-92
2021/09/25 11:36:06;;;;;;;0.10;0.10;;;;;;;;;;5040805;28;20049;-94
2021/09/25 11:38:32;;;;;;;0.10;0.10;;;;;;;;;;5041500;28;20048;-95
2021/09/25 11:40:58;;;;;;;0.20;0.20;;;;;;;;;;5041628;28;20110;-93
2021/09/25 11:43:25;;;;;;;0.10;0.10;;;;;;;;;;5028739;28;20087;-94
2021/09/25 11:45:52;;;;;;;0.10;0.10;;;;;;;;;;5018650;28;20064;-96
2021/09/25 11:48:18;;;;;;;0.10;0.10;;;;;;;;;;5018203;28;20457;-91
2021/09/25 11:50:50;;;;;;;0.10;0.10;;;;;;;;;;5017777;28;20456;-90
2021/09/25 11:53:17;;;;;;;0.20;0.20;;;;;;;;;;5018296;28;20432;-94
2021/09/25 11:55:43;;;;;;;0.10;0.10;;;;;;;;;;5017779;28;20215;-94
2021/09/25 11:58:10;;;;;;;0.10;0.10;;;;;;;;;;5017537;28;20112;-92
2021/09/25 12:00:38;;;;;;;0.10;0.10;;;;;;;;;;5017263;28;20148;-94
2021/09/25 12:03:05;;;;;;;0.10;0.10;;;;;;;;;;5017232;28;20041;-95
2021/09/25 12:05:31;;;;;;;0.20;0.20;;;;;;;;;;5018144;28;20072;-95
2021/09/25 12:07:58;;;;;;;0.10;0.10;;;;;;;;;;5017409;28;20033;-95
2021/09/25 12:10:25;;;;;;;0.10;0.10;;;;;;;;;;5017138;28;20041;-92
2021/09/25 12:12:55;;;;;;;0.30;0.30;;;;;;;;;;5033458;28;20128;-91
2021/09/25 12:15:25;;;;;;;0.15;0.15;;;;;;;;;;5016348;28;20077;-91
2021/09/25 12:18:07;;;;;;;0.10;0.10;;;;;;;;;;5016942;28;20426;-93
2021/09/25 12:20:33;;;;;;;0.20;0.20;;;;;;;;;;5016844;28;20101;-93
2021/09/25 12:22:59;;;;;;;0.20;0.20;;;;;;;;;;5016889;28;20088;-94
2021/09/25 12:25:25;;;;;;;0.10;0.10;;;;;;;;;;5016470;28;20080;-92
2021/09/25 12:27:51;;;;;;;0.10;0.10;;;;;;;;;;5016918;28;20065;-92
2021/09/25 12:30:17;;;;;;;0.10;0.10;;;;;;;;;;5016565;28;20041;-93
2021/09/25 12:32:43;;;;;;;0.10;0.10;;;;;;;;;;5017011;28;20041;-93
2021/09/25 12:35:16;;;;;;;0.10;0.10;;;;;;;;;;5016989;28;20086;-94
2021/09/25 12:37:46;;;;;;;0.10;0.10;;;;;;;;;;5017068;28;20175;-96
2021/09/25 12:40:12;;;;;;;0.10;0.10;;;;;;;;;;5033307;28;20496;-96
2021/09/25 12:42:38;;;;;;;0.10;0.10;;;;;;;;;;5032939;28;20037;-95
2021/09/25 12:45:08;;;;;;;0.20;0.20;;;;;;;;;;5016586;28;20179;-96
2021/09/25 12:47:34;;;;;;;0.10;0.10;;;;;;;;;;5017052;28;20076;-93
2021/09/25 12:50:15;;;;;;;0.10;0.10;;;;;;;;;;5016522;28;20037;-95
2021/09/25 12:52:41;;;;;;;0.20;0.20;;;;;;;;;;5016478;28;20132;-94
2021/09/25 12:55:11;;;;;;;0.20;0.20;;;;;;;;;;5016599;28;20076;-94
2021/09/25 12:57:37;;;;;;;0.57;0.17;;;;;;;;;;5016106;28;20053;-96
2021/09/25 13:00:07;;;;;;;0.10;0.10;;;;;;;;;;5016052;28;20034;-93
2021/09/25 13:02:33;;;;;;;0.20;0.20;;;;;;;;;;5028596;28;20122;-93
2021/09/25 13:05:07;;;;;;;0.10;0.10;;;;;;;;;;5049703;28;20418;-94
2021/09/25 13:07:34;;;;;;;0.13;0.13;;;;;;;;;;5040020;28;20071;-95
2021/09/25 13:10:01;;;;;;;0.10;0.10;;;;;;;;;;5056067;28;20041;-95
2021/09/25 13:12:30;;;;;;;0.10;0.10;;;;;;;;;;5056137;28;20067;-95
2021/09/25 13:15:04;;;;;;;0.20;0.20;;;;;;;;;;5072482;28;20032;-95
2021/09/25 13:17:30;;;;;;;0.10;0.10;;;;;;;;;;5055596;28;20044;-94
2021/09/25 13:19:56;;;;;;;0.10;0.10;;;;;;;;;;5038766;28;20079;-94
2021/09/25 13:22:22;;;;;;;0.10;0.10;;;;;;;;;;5038806;28;20059;-94
2021/09/25 13:24:48;;;;;;;0.10;0.10;;;;;;;;;;5072320;28;20044;-96
2021/09/25 13:27:14;;;;;;;0.10;0.10;;;;;;;;;;5055824;28;20041;-93
2021/09/25 13:29:40;;;;;;;0.20;0.20;;;;;;;;;;5071740;28;20125;-92
2021/09/25 13:32:06;;;;;;;0.10;0.10;;;;;;;;;;5055113;28;20178;-92
2021/09/25 13:34:32;;;;;;;0.10;0.10;;;;;;;;;;5055118;28;20040;-92
2021/09/25 13:36:58;;;;;;;0.10;0.10;;;;;;;;;;5038641;28;20044;-92
2021/09/25 13:39:24;;;;;;;0.10;0.10;;;;;;;;;;5039029;28;20388;-93
2021/09/25 13:41:50;;;;;;;0.10;0.10;;;;;;;;;;5021265;28;20132;-93
2021/09/25 13:44:16;;;;;;;0.10;0.10;;;;;;;;;;5031427;28;20451;-92
2021/09/25 13:46:42;;;;;;;0.10;0.10;;;;;;;;;;5015419;28;20088;-93
2021/09/25 13:49:08;;;;;;;0.10;0.10;;;;;;;;;;5015566;28;20037;-92
2021/09/25 13:51:35;;;;;;;0.13;0.13;;;;;;;;;;5015557;28;20048;-92
2021/09/25 13:54:01;;;;;;;0.20;0.15;;;;;;;;;;5015602;28;20044;-92
2021/09/25 13:56:27;;;;;;;0.10;0.10;;;;;;;;;;5015774;28;20057;-93
2021/09/25 13:58:55;;;;;;;0.10;0.10;;;;;;;;;;5016754;28;20072;-92
2021/09/25 14:01:23;;;;;;;0.10;0.10;;;;;;;;;;5017441;28;20041;-92
2021/09/25 14:03:49;;;;;;;0.25;0.25;;;;;;;;;;5020082;28;20033;-93
2021/09/25 14:06:15;;;;;;;0.10;0.10;;;;;;;;;;5026436;28;20034;-92
2021/09/25 14:08:41;;;;;;;0.10;0.10;;;;;;;;;;5028393;28;20193;-93
2021/09/25 14:11:08;;;;;;;0.10;0.10;;;;;;;;;;5042652;28;20078;-93
2021/09/25 14:13:36;;;;;;;0.20;0.20;;;;;;;;;;5025537;28;20370;-91
2021/09/25 14:16:02;;;;;;;0.10;0.10;;;;;;;;;;5033990;28;20093;-90
2021/09/25 14:18:28;;;;;;;0.15;0.15;;;;;;;;;;5038426;28;20049;-90
2021/09/25 14:20:54;;;;;;;0.20;0.20;;;;;;;;;;5038405;28;20044;-90
2021/09/25 14:23:20;;;;;;;0.10;0.10;;;;;;;;;;5024788;28;20041;-93
2021/09/25 14:25:46;;;;;;;0.10;0.10;;;;;;;;;;5015223;28;20115;-92
2021/09/25 14:28:13;;;;;;;0.10;0.10;;;;;;;;;;5014813;28;20077;-91
2021/09/25 14:30:39;;;;;;;0.15;0.15;;;;;;;;;;5014698;28;20050;-90
2021/09/25 14:33:05;;;;;;;0.10;0.10;;;;;;;;;;5014730;28;20045;-91
2021/09/25 14:35:31;;;;;;;0.15;0.15;;;;;;;;;;5015067;28;20049;-92
2021/09/25 14:37:57;;;;;;;0.20;0.20;;;;;;;;;;5014613;28;20452;-92
2021/09/25 14:40:23;;;;;;;0.10;0.10;;;;;;;;;;5033857;28;20040;-91